createdAt,value
2023-05-05T00:02:15.756Z,11.27
2023-05-05T00:04:43.159Z,11.10
2023-05-05T00:07:10.506Z,10.80
2023-05-05T00:09:37.889Z,11.73
2023-05-05T00:12:05.625Z,10.70
2023-05-05T00:14:33.058Z,11.32
2023-05-05T00:17:00.550Z,11.63
2023-05-05T00:19:27.933Z,10.85
2023-05-05T00:21:55.691Z,11.38
2023-05-05T00:24:23.560Z,10.50
2023-05-05T00:26:51.253Z,11.02
2023-05-05T00:29:18.721Z,11.00
2023-05-05T00:31:46.180Z,12.13
2023-05-05T00:34:13.537Z,11.60
2023-05-05T00:36:41.399Z,11.23
2023-05-05T00:39:09.862Z,10.98
2023-05-05T00:41:37.385Z,9.65
2023-05-05T00:44:05.258Z,11.32
2023-05-05T00:46:34.781Z,10.15
2023-05-05T00:49:02.509Z,10.15
2023-05-05T00:51:30.061Z,10.35
2023-05-05T00:53:57.662Z,10.00
2023-05-05T00:56:27.346Z,9.93
2023-05-05T00:58:55.009Z,9.85
2023-05-05T01:01:23.121Z,10.32
2023-05-05T01:03:50.726Z,10.35
2023-05-05T01:06:37.022Z,10.25
2023-05-05T01:09:32.744Z,12.38
2023-05-05T01:12:15.081Z,13.05
2023-05-05T01:17:19.483Z,12.00
2023-05-05T01:19:50.045Z,12.98
2023-05-05T01:22:22.671Z,12.15
2023-05-05T01:25:09.753Z,11.68
2023-05-05T01:28:02.067Z,12.77
2023-05-05T01:30:53.833Z,11.25
2023-05-05T01:33:49.097Z,10.73
2023-05-05T01:36:25.158Z,10.55
2023-05-05T01:38:58.094Z,11.27
2023-05-05T01:41:31.170Z,11.65
2023-05-05T01:44:01.225Z,11.52
2023-05-05T01:46:30.310Z,11.45
2023-05-05T01:48:59.451Z,12.35
2023-05-05T01:51:28.615Z,12.32
2023-05-05T01:54:01.563Z,11.98
2023-05-05T01:56:31.334Z,12.27
2023-05-05T01:59:01.678Z,11.73
2023-05-05T02:01:30.476Z,9.88
2023-05-05T02:03:58.873Z,10.95
2023-05-05T02:06:29.906Z,11.70
2023-05-05T02:08:58.386Z,11.82
2023-05-05T02:11:28.034Z,12.38
2023-05-05T02:13:57.794Z,13.23
2023-05-05T02:16:25.641Z,13.25
2023-05-05T02:18:54.466Z,13.65
2023-05-05T02:21:22.820Z,12.73
2023-05-05T02:23:52.030Z,12.40
2023-05-05T02:26:23.146Z,12.93
2023-05-05T02:28:53.173Z,13.23
2023-05-05T02:31:23.937Z,12.65
2023-05-05T02:33:53.381Z,12.15
2023-05-05T02:36:23.442Z,12.73
2023-05-05T02:39:02.254Z,13.57
2023-05-05T02:41:36.230Z,13.02
2023-05-05T02:44:09.679Z,13.05
2023-05-05T02:46:38.978Z,13.25
2023-05-05T02:49:06.712Z,12.30
2023-05-05T02:51:34.287Z,13.32
2023-05-05T02:54:05.725Z,12.95
2023-05-05T02:56:36.273Z,13.30
2023-05-05T02:59:09.966Z,12.23
2023-05-05T03:01:46.723Z,10.68
2023-05-05T03:04:37.406Z,12.32
2023-05-05T03:07:12.224Z,11.50
2023-05-05T03:09:46.693Z,12.25
2023-05-05T03:12:20.173Z,11.73
2023-05-05T03:15:00.814Z,11.13
2023-05-05T03:17:32.024Z,12.40
2023-05-05T03:20:02.359Z,12.48
2023-05-05T03:22:37.628Z,12.23
2023-05-05T03:25:07.560Z,12.13
2023-05-05T03:27:34.971Z,12.73
2023-05-05T03:30:02.826Z,12.70
2023-05-05T03:32:31.896Z,12.25
2023-05-05T03:34:59.300Z,12.50
2023-05-05T03:37:32.004Z,13.55
2023-05-05T03:39:59.888Z,13.55
2023-05-05T03:42:27.358Z,13.30
2023-05-05T03:44:54.852Z,12.73
2023-05-05T03:47:24.688Z,14.50
2023-05-05T03:49:53.121Z,14.75
2023-05-05T03:52:20.528Z,15.50
2023-05-05T03:54:48.180Z,16.30
2023-05-05T03:57:15.710Z,15.30
2023-05-05T03:59:43.298Z,15.55
2023-05-05T04:02:10.933Z,14.45
2023-05-05T04:04:38.498Z,16.92
2023-05-05T04:07:06.155Z,14.93
2023-05-05T04:09:33.947Z,14.45
2023-05-05T04:12:01.554Z,14.25
2023-05-05T04:14:29.590Z,13.43
2023-05-05T04:16:57.022Z,15.07
2023-05-05T04:19:24.522Z,15.50
2023-05-05T04:21:52.137Z,16.40
2023-05-05T04:24:24.900Z,15.18
2023-05-05T04:26:54.510Z,15.55
2023-05-05T04:29:22.387Z,15.68
2023-05-05T04:31:50.693Z,15.70
2023-05-05T04:34:18.212Z,15.30
2023-05-05T04:36:45.955Z,15.02
2023-05-05T04:39:13.982Z,15.35
2023-05-05T04:41:41.529Z,15.35
2023-05-05T04:44:09.873Z,16.23
2023-05-05T04:46:37.278Z,14.98
2023-05-05T04:49:05.913Z,15.23
2023-05-05T04:51:34.379Z,14.93
2023-05-05T04:54:01.756Z,15.13
2023-05-05T04:56:31.706Z,15.52
2023-05-05T04:58:59.080Z,15.60
2023-05-05T05:01:26.547Z,14.50
2023-05-05T05:03:54.032Z,14.13
2023-05-05T05:06:21.588Z,14.82
2023-05-05T05:08:48.978Z,13.07
2023-05-05T05:11:16.350Z,13.23
2023-05-05T05:13:43.773Z,13.75
2023-05-05T05:16:11.672Z,14.98
2023-05-05T05:18:39.184Z,14.52
2023-05-05T05:21:06.729Z,14.20
2023-05-05T05:23:34.474Z,14.65
2023-05-05T05:26:02.588Z,13.90
2023-05-05T05:28:30.876Z,13.73
2023-05-05T05:30:59.919Z,12.52
2023-05-05T05:33:27.409Z,12.77
2023-05-05T05:35:56.888Z,11.88
2023-05-05T05:38:24.880Z,11.55
2023-05-05T05:40:55.739Z,11.40
2023-05-05T05:43:24.486Z,11.77
2023-05-05T05:45:52.593Z,11.57
2023-05-05T05:48:24.806Z,12.20
2023-05-05T05:50:52.725Z,10.40
2023-05-05T05:53:20.621Z,11.38
2023-05-05T05:55:48.943Z,11.55
2023-05-05T05:58:17.217Z,11.63
2023-05-05T06:00:45.632Z,11.57
2023-05-05T06:03:13.614Z,11.18
2023-05-05T06:05:41.915Z,11.68
2023-05-05T06:08:09.539Z,11.57
2023-05-05T06:10:42.361Z,11.55
2023-05-05T06:13:15.226Z,12.15
2023-05-05T06:15:46.224Z,11.40
2023-05-05T06:18:14.785Z,12.02
2023-05-05T06:20:43.538Z,11.23
2023-05-05T06:23:12.387Z,11.48
2023-05-05T06:25:44.062Z,11.95
2023-05-05T06:28:11.474Z,12.75
2023-05-05T06:30:38.875Z,11.75
2023-05-05T06:33:06.306Z,12.07
2023-05-05T06:35:33.797Z,11.40
2023-05-05T06:38:01.199Z,11.48
2023-05-05T06:40:28.690Z,11.70
2023-05-05T06:42:56.168Z,11.02
2023-05-05T06:45:28.356Z,11.30
2023-05-05T06:47:55.863Z,11.27
2023-05-05T06:50:24.550Z,11.50
2023-05-05T06:52:53.163Z,11.18
2023-05-05T06:55:20.701Z,11.25
2023-05-05T06:57:48.095Z,11.80
2023-05-05T07:00:16.969Z,12.10
2023-05-05T07:02:44.535Z,12.45
2023-05-05T07:05:11.948Z,12.20
2023-05-05T07:07:51.407Z,11.57
2023-05-05T07:10:18.887Z,13.85
2023-05-05T07:12:46.664Z,12.80
2023-05-05T07:15:26.885Z,12.23
2023-05-05T07:17:56.793Z,12.93
2023-05-05T07:20:24.657Z,12.80
2023-05-05T07:22:52.110Z,12.95
2023-05-05T07:25:19.698Z,12.27
2023-05-05T07:27:47.144Z,12.20
2023-05-05T07:30:17.602Z,12.93
2023-05-05T07:32:46.726Z,12.55
2023-05-05T07:35:14.354Z,13.18
2023-05-05T07:37:42.094Z,11.98
2023-05-05T07:40:10.158Z,13.15
2023-05-05T07:42:37.917Z,12.70
2023-05-05T07:45:06.885Z,12.88
2023-05-05T07:47:34.303Z,13.15
2023-05-05T07:50:01.742Z,13.60
2023-05-05T07:52:44.143Z,11.98
2023-05-05T07:55:13.827Z,13.63
2023-05-05T07:57:41.534Z,12.88
2023-05-05T08:00:10.348Z,14.65
2023-05-05T08:02:41.357Z,13.85
2023-05-05T08:05:09.488Z,14.25
2023-05-05T08:07:41.169Z,12.70
2023-05-05T08:10:11.283Z,12.93
2023-05-05T08:12:39.598Z,13.10
2023-05-05T08:15:07.932Z,12.25
2023-05-05T08:17:46.955Z,12.18
2023-05-05T08:20:15.034Z,12.30
2023-05-05T08:22:43.653Z,12.25
2023-05-05T08:25:12.820Z,12.50
2023-05-05T08:27:41.862Z,13.07
2023-05-05T08:30:10.151Z,11.60
2023-05-05T08:32:38.461Z,11.73
2023-05-05T08:35:06.813Z,11.13
2023-05-05T08:37:34.924Z,11.18
2023-05-05T08:40:02.411Z,10.45
2023-05-05T08:42:37.715Z,10.70
2023-05-05T08:45:08.519Z,11.60
2023-05-05T08:47:37.394Z,11.63
2023-05-05T08:50:08.489Z,12.32
2023-05-05T08:52:41.794Z,10.88
2023-05-05T08:55:24.284Z,10.95
2023-05-05T09:00:21.231Z,11.13
2023-05-05T09:02:49.065Z,8.85
2023-05-05T09:05:17.606Z,10.00
2023-05-05T09:07:45.165Z,8.70
2023-05-05T09:10:12.845Z,9.75
2023-05-05T09:12:41.083Z,10.13
2023-05-05T09:15:12.594Z,10.32
2023-05-05T09:17:40.684Z,8.57
2023-05-05T09:20:09.894Z,9.00
2023-05-05T09:22:40.795Z,10.00
2023-05-05T09:25:13.722Z,9.63
2023-05-05T09:27:46.187Z,10.52
2023-05-05T09:30:23.483Z,7.88
2023-05-05T09:32:52.950Z,7.63
2023-05-05T09:35:22.137Z,9.43
2023-05-05T09:37:49.525Z,9.15
2023-05-05T09:40:18.845Z,7.18
2023-05-05T09:42:46.777Z,8.05
2023-05-05T09:45:20.387Z,7.55
2023-05-05T09:47:48.624Z,7.50
2023-05-05T09:50:20.652Z,7.70
2023-05-05T09:52:58.120Z,9.45
2023-05-05T09:55:25.911Z,8.32
2023-05-05T09:57:53.741Z,7.53
2023-05-05T10:00:21.459Z,8.00
2023-05-05T10:02:48.913Z,6.68
2023-05-05T10:05:18.025Z,7.32
2023-05-05T10:07:47.207Z,6.90
2023-05-05T10:10:18.951Z,7.10
2023-05-05T10:12:47.661Z,7.95
2023-05-05T10:15:16.332Z,6.93
2023-05-05T10:18:05.025Z,8.27
2023-05-05T10:20:36.419Z,8.75
2023-05-05T10:23:06.979Z,8.82
2023-05-05T10:25:42.140Z,7.93
2023-05-05T10:28:16.651Z,7.20
2023-05-05T10:30:48.745Z,7.35
2023-05-05T10:33:31.672Z,6.57
2023-05-05T10:36:03.506Z,6.88
2023-05-05T10:38:32.499Z,6.55
2023-05-05T10:41:02.013Z,6.32
2023-05-05T10:43:33.474Z,7.25
2023-05-05T10:46:01.957Z,7.03
2023-05-05T10:48:47.168Z,7.85
2023-05-05T10:51:57.733Z,7.95
2023-05-05T10:54:30.664Z,8.55
2023-05-05T10:57:01.261Z,6.90
2023-05-05T10:59:38.137Z,8.10
2023-05-05T11:02:18.932Z,8.23
2023-05-05T11:05:21.492Z,6.97
2023-05-05T11:10:23.792Z,7.07
2023-05-05T11:13:02.444Z,6.72
2023-05-05T11:15:30.340Z,6.97
2023-05-05T11:17:59.899Z,7.28
2023-05-05T11:20:43.599Z,6.28
2023-05-05T11:23:10.999Z,7.13
2023-05-05T11:25:40.545Z,7.03
2023-05-05T11:28:13.184Z,7.63
2023-05-05T11:30:56.434Z,7.53
2023-05-05T11:33:30.450Z,8.02
2023-05-05T11:36:21.920Z,8.60
2023-05-05T11:39:11.936Z,8.57
2023-05-05T11:41:52.932Z,7.35
2023-05-05T11:44:29.592Z,7.95
2023-05-05T11:47:00.991Z,8.18
2023-05-05T11:49:35.803Z,8.00
2023-05-05T11:52:06.661Z,7.78
2023-05-05T11:54:38.487Z,7.43
2023-05-05T11:57:07.596Z,7.07
2023-05-05T11:59:40.285Z,7.03
2023-05-05T12:02:07.707Z,7.00
2023-05-05T12:04:40.042Z,7.65
2023-05-05T12:07:07.570Z,7.80
2023-05-05T12:09:35.401Z,6.97
2023-05-05T12:12:03.444Z,7.13
2023-05-05T12:14:31.102Z,6.65
2023-05-05T12:17:03.076Z,8.55
2023-05-05T12:19:33.414Z,6.80
2023-05-05T12:22:05.639Z,6.85
2023-05-05T12:27:10.776Z,7.50
2023-05-05T12:29:38.590Z,6.40
2023-05-05T12:32:06.466Z,6.72
2023-05-05T12:34:34.470Z,6.20
2023-05-05T12:37:02.439Z,6.85
2023-05-05T12:39:36.683Z,5.63
2023-05-05T12:42:05.130Z,5.72
2023-05-05T12:44:38.847Z,6.40
2023-05-05T12:47:07.100Z,6.30
2023-05-05T12:49:53.434Z,7.13
2023-05-05T12:52:21.172Z,5.45
2023-05-05T12:55:07.413Z,5.50
2023-05-05T12:57:35.332Z,6.00
2023-05-05T13:00:13.837Z,6.15
2023-05-05T13:02:41.629Z,5.47
2023-05-05T13:05:09.889Z,6.82
2023-05-05T13:07:50.252Z,6.88
2023-05-05T13:10:18.165Z,5.50
2023-05-05T13:12:45.937Z,6.43
2023-05-05T13:15:13.749Z,6.03
2023-05-05T13:17:41.447Z,5.63
2023-05-05T13:20:10.869Z,6.13
2023-05-05T13:22:38.479Z,6.05
2023-05-05T13:25:06.500Z,5.10
2023-05-05T13:27:34.451Z,5.28
2023-05-05T13:30:01.879Z,5.53
2023-05-05T13:32:29.328Z,5.20
2023-05-05T13:34:57.892Z,5.32
2023-05-05T13:37:25.660Z,5.38
2023-05-05T13:39:55.338Z,5.30
2023-05-05T13:42:22.734Z,4.90
2023-05-05T13:44:50.135Z,5.18
2023-05-05T13:47:17.549Z,5.10
2023-05-05T13:49:45.506Z,5.15
2023-05-05T13:52:13.014Z,5.60
2023-05-05T13:54:40.536Z,6.13
2023-05-05T13:57:08.020Z,5.88
2023-05-05T13:59:35.460Z,5.40
2023-05-05T14:02:03.117Z,4.55
2023-05-05T14:04:30.625Z,3.78
2023-05-05T14:06:58.579Z,4.70
2023-05-05T14:09:25.969Z,4.95
2023-05-05T14:11:53.513Z,4.82
2023-05-05T14:14:20.923Z,4.78
2023-05-05T14:16:50.246Z,4.57
2023-05-05T14:19:17.910Z,4.10
2023-05-05T14:21:45.221Z,4.70
2023-05-05T14:24:12.677Z,5.95
2023-05-05T14:26:40.230Z,5.80
2023-05-05T14:29:07.594Z,4.45
2023-05-05T14:31:36.241Z,4.45
2023-05-05T14:34:03.778Z,5.03
2023-05-05T14:36:31.330Z,4.13
2023-05-05T14:38:58.769Z,3.80
2023-05-05T14:41:26.265Z,4.43
2023-05-05T14:43:53.711Z,4.45
2023-05-05T14:46:21.302Z,4.65
2023-05-05T14:48:48.740Z,3.80
2023-05-05T14:51:16.365Z,3.88
2023-05-05T14:53:43.865Z,5.28
2023-05-05T14:56:11.317Z,5.50
2023-05-05T14:58:38.721Z,4.75
2023-05-05T15:01:06.268Z,4.55
2023-05-05T15:03:34.003Z,4.45
2023-05-05T15:06:02.148Z,3.97
2023-05-05T15:08:29.574Z,5.65
2023-05-05T15:10:56.957Z,5.10
2023-05-05T15:13:24.325Z,5.68
2023-05-05T15:15:51.864Z,6.38
2023-05-05T15:18:19.289Z,5.85
2023-05-05T15:20:46.771Z,4.80
2023-05-05T15:23:14.189Z,5.78
2023-05-05T15:25:41.722Z,6.60
2023-05-05T15:28:09.096Z,6.20
2023-05-05T15:30:36.542Z,5.22
2023-05-05T15:33:04.034Z,6.00
2023-05-05T15:35:31.562Z,6.55
2023-05-05T15:37:58.996Z,5.88
2023-05-05T15:40:26.402Z,5.45
2023-05-05T15:42:53.916Z,6.72
2023-05-05T15:45:21.381Z,5.10
2023-05-05T15:47:49.958Z,5.10
2023-05-05T15:50:17.342Z,5.60
2023-05-05T15:52:44.771Z,4.97
2023-05-05T15:55:12.290Z,5.40
2023-05-05T15:57:40.412Z,5.60
2023-05-05T16:00:09.258Z,4.93
2023-05-05T16:02:37.686Z,4.90
2023-05-05T16:05:05.491Z,4.90
2023-05-05T16:07:32.901Z,4.50
2023-05-05T16:10:00.383Z,5.32
2023-05-05T16:12:27.890Z,4.63
2023-05-05T16:14:55.723Z,5.32
2023-05-05T16:17:23.174Z,4.60
2023-05-05T16:19:50.863Z,5.32
2023-05-05T16:22:18.419Z,4.88
2023-05-05T16:24:45.792Z,5.00
2023-05-05T16:27:13.399Z,4.75
2023-05-05T16:29:41.147Z,4.85
2023-05-05T16:32:08.523Z,4.97
2023-05-05T16:34:35.901Z,4.55
2023-05-05T16:37:03.449Z,5.00
2023-05-05T16:39:32.903Z,5.15
2023-05-05T16:42:00.331Z,4.25
2023-05-05T16:44:27.726Z,4.47
2023-05-05T16:46:55.153Z,4.57
2023-05-05T16:49:24.251Z,4.80
2023-05-05T16:51:53.497Z,4.80
2023-05-05T16:54:20.877Z,4.15
2023-05-05T16:56:48.193Z,4.35
2023-05-05T16:59:16.767Z,4.50
2023-05-05T17:01:44.269Z,4.13
2023-05-05T17:04:11.937Z,3.67
2023-05-05T17:06:39.323Z,3.90
2023-05-05T17:09:06.760Z,4.03
2023-05-05T17:11:34.260Z,3.67
2023-05-05T17:14:01.659Z,4.32
2023-05-05T17:16:29.108Z,3.70
2023-05-05T17:18:56.518Z,4.03
2023-05-05T17:21:23.943Z,3.90
2023-05-05T17:23:51.351Z,3.70
2023-05-05T17:26:18.737Z,4.20
2023-05-05T17:28:46.429Z,4.22
2023-05-05T17:31:13.864Z,4.10
2023-05-05T17:33:41.298Z,4.07
2023-05-05T17:36:09.144Z,3.90
2023-05-05T17:38:36.539Z,3.60
2023-05-05T17:41:03.975Z,3.75
2023-05-05T17:43:31.349Z,3.75
2023-05-05T17:45:58.792Z,3.45
2023-05-05T17:48:26.934Z,3.58
2023-05-05T17:50:54.715Z,3.75
2023-05-05T17:53:22.386Z,3.40
2023-05-05T17:55:49.799Z,3.88
2023-05-05T17:58:17.356Z,4.60
2023-05-05T18:00:44.712Z,3.80
2023-05-05T18:03:12.543Z,3.90
2023-05-05T18:05:40.053Z,3.95
2023-05-05T18:08:08.321Z,4.07
2023-05-05T18:10:35.727Z,4.20
2023-05-05T18:13:03.207Z,4.38
2023-05-05T18:15:30.919Z,3.80
2023-05-05T18:17:58.315Z,3.97
2023-05-05T18:20:25.753Z,4.10
2023-05-05T18:22:53.172Z,4.28
2023-05-05T18:25:20.664Z,4.63
2023-05-05T18:27:48.133Z,4.80
2023-05-05T18:30:16.891Z,4.75
2023-05-05T18:32:44.439Z,4.15
2023-05-05T18:35:12.012Z,4.53
2023-05-05T18:37:39.619Z,4.90
2023-05-05T18:40:09.958Z,4.63
2023-05-05T18:42:37.420Z,4.57
2023-05-05T18:45:05.353Z,5.15
2023-05-05T18:47:33.803Z,5.00
2023-05-05T18:50:01.530Z,4.82
2023-05-05T18:52:29.117Z,5.10
2023-05-05T18:54:56.568Z,5.10
2023-05-05T18:57:24.009Z,4.82
2023-05-05T18:59:51.471Z,5.28
2023-05-05T19:02:19.181Z,5.13
2023-05-05T19:04:46.738Z,5.18
2023-05-05T19:07:21.139Z,5.35
2023-05-05T19:09:58.936Z,5.53
2023-05-05T19:12:26.318Z,5.72
2023-05-05T19:14:53.733Z,5.90
2023-05-05T19:17:21.119Z,6.60
2023-05-05T19:19:48.490Z,6.80
2023-05-05T19:22:17.426Z,6.43
2023-05-05T19:24:44.800Z,6.60
2023-05-05T19:27:16.460Z,6.97
2023-05-05T19:29:45.231Z,6.25
2023-05-05T19:32:13.072Z,7.03
2023-05-05T19:34:42.355Z,6.75
2023-05-05T19:37:10.250Z,7.28
2023-05-05T19:39:38.080Z,7.63
2023-05-05T19:42:06.073Z,7.30
2023-05-05T19:44:33.820Z,7.85
2023-05-05T19:47:01.597Z,6.80
2023-05-05T19:49:29.268Z,8.13
2023-05-05T19:51:58.818Z,9.60
2023-05-05T19:54:26.853Z,9.00
2023-05-05T19:56:55.428Z,8.75
2023-05-05T19:59:24.868Z,8.13
2023-05-05T20:01:52.648Z,9.00
2023-05-05T20:04:20.353Z,9.13
2023-05-05T20:06:48.034Z,9.07
2023-05-05T20:09:15.742Z,10.05
2023-05-05T20:11:43.515Z,10.80
2023-05-05T20:14:11.190Z,8.93
2023-05-05T20:16:39.360Z,9.43
2023-05-05T20:19:06.700Z,8.77
2023-05-05T20:21:37.102Z,8.45
2023-05-05T20:24:05.013Z,8.05
2023-05-05T20:26:32.406Z,7.30
2023-05-05T20:28:59.754Z,7.78
2023-05-05T20:31:27.157Z,7.65
2023-05-05T20:33:54.810Z,8.85
2023-05-05T20:36:22.826Z,8.68
2023-05-05T20:38:51.938Z,8.15
2023-05-05T20:41:19.303Z,8.00
2023-05-05T20:43:46.688Z,13.65
2023-05-05T20:46:14.192Z,8.10
2023-05-05T20:48:42.916Z,7.18
2023-05-05T20:51:10.635Z,7.90
2023-05-05T20:53:38.160Z,8.57
2023-05-05T20:56:07.268Z,6.88
2023-05-05T20:58:36.122Z,8.70
2023-05-05T21:01:03.587Z,8.50
2023-05-05T21:03:31.179Z,8.95
2023-05-05T21:05:58.585Z,8.82
2023-05-05T21:08:26.765Z,8.35
2023-05-05T21:10:54.190Z,9.25
2023-05-05T21:13:21.746Z,8.30
2023-05-05T21:15:50.497Z,9.48
2023-05-05T21:18:17.876Z,8.98
2023-05-05T21:20:45.340Z,8.35
2023-05-05T21:23:12.711Z,7.93
2023-05-05T21:25:40.181Z,9.02
2023-05-05T21:28:07.649Z,8.32
2023-05-05T21:30:35.143Z,8.65
2023-05-05T21:33:02.510Z,8.45
2023-05-05T21:35:29.848Z,7.70
2023-05-05T21:37:57.328Z,8.57
2023-05-05T21:40:24.762Z,7.78
2023-05-05T21:42:52.144Z,8.40
2023-05-05T21:45:19.719Z,8.18
2023-05-05T21:47:47.108Z,8.77
2023-05-05T21:50:14.471Z,10.00
2023-05-05T21:52:41.895Z,8.23
2023-05-05T21:55:11.055Z,8.63
2023-05-05T21:57:38.486Z,8.73
2023-05-05T22:00:06.408Z,8.70
2023-05-05T22:02:39.822Z,10.00
2023-05-05T22:05:08.041Z,9.27
2023-05-05T22:07:35.591Z,9.40
2023-05-05T22:10:03.742Z,10.10
2023-05-05T22:12:31.237Z,10.00
2023-05-05T22:14:58.656Z,9.35
2023-05-05T22:17:26.052Z,9.05
2023-05-05T22:19:53.417Z,8.45
2023-05-05T22:22:20.755Z,9.45
2023-05-05T22:24:48.141Z,9.35
2023-05-05T22:27:15.808Z,10.70
2023-05-05T22:29:43.186Z,9.43
2023-05-05T22:32:10.618Z,10.15
2023-05-05T22:34:38.106Z,11.07
2023-05-05T22:37:05.918Z,11.77
2023-05-05T22:39:33.504Z,11.65
2023-05-05T22:42:01.678Z,12.05
2023-05-05T22:44:29.204Z,11.68
2023-05-05T22:46:56.741Z,13.55
2023-05-05T22:49:24.266Z,10.98
2023-05-05T22:51:51.935Z,11.60
2023-05-05T22:54:19.420Z,13.00
2023-05-05T22:56:47.371Z,10.35
2023-05-05T22:59:14.785Z,12.32
2023-05-05T23:01:42.261Z,10.65
2023-05-05T23:04:09.777Z,11.63
2023-05-05T23:06:37.161Z,10.68
2023-05-05T23:09:04.530Z,11.43
2023-05-05T23:11:31.945Z,11.40
2023-05-05T23:13:59.379Z,11.18
2023-05-05T23:16:26.827Z,10.32
2023-05-05T23:18:54.238Z,10.57
2023-05-05T23:21:21.732Z,10.35
2023-05-05T23:23:49.499Z,10.90
2023-05-05T23:26:16.968Z,10.48
2023-05-05T23:28:44.449Z,10.65
2023-05-05T23:31:11.906Z,11.02
2023-05-05T23:33:39.345Z,10.68
2023-05-05T23:36:07.114Z,11.07
2023-05-05T23:38:34.587Z,10.70
2023-05-05T23:41:02.046Z,10.75
2023-05-05T23:43:29.574Z,11.25
2023-05-05T23:45:57.450Z,11.13
2023-05-05T23:48:24.901Z,10.48
2023-05-05T23:50:53.059Z,10.88
2023-05-05T23:53:20.490Z,10.82
2023-05-05T23:55:47.872Z,9.95
2023-05-05T23:58:15.220Z,10.43
